Main page
METAR-TAF:

METAR-TAF

Airports :

Louis Armstrong New Orleans International Airport

New Orleans, Louisiana, United States

latitude: 29-59-34N, longitude: 090-15-03W, elevation: 1 m

Current weather observation

The report was made 36 minutes ago, at 05:53 UTC
Wind 6 kt from the West
Temperature 12°C
Humidity 71%
Pressure 1020 hPa
Visibility: 16.1 km
Clear sky

METAR: KMSY 210553Z 26006KT 10SM CLR 12/07 A3013 RMK AO2 SLP207 T01220067 10194 20122 402110067 56009

Time: 01:29 (06:29 UTC)

Forecast

The report was made 1 hour and 9 minutes ago, at 05:20 UTC
Forecast valid from 21 at 06 UTC to 22 at 12 UTC
Wind 4 kt from variable directions
Visibility: 10 km
Clear sky
From 21 at 1000 UTC
Wind 8 kt from the Northwest
Visibility: 10 km
Clear sky
From 21 at 1800 UTC
Wind 7 kt from the Northwest
Visibility: 10 km
Clear sky
From 22 at 0100 UTC
Wind 5 kt from the West/Northwest
Visibility: 10 km
Clear sky

TAF: KMSY 210520Z 2106/2212 VRB04KT P6SM SKC FM211000 32008KT P6SM SKC FM211800 32007KT P6SM SKC FM220100 30005KT P6SM SKC

Weather observations and forecasts of more than 4000 airports (METAR and TAF reports).

The available stations are represented by yellow and red dots on the map.

Hover mouse over dot to see the name of the station.

Then click to see weather observations and forecasts.

To change the map : click on the green buttons with a black cross to zoom in, on the green button with a dash to zoom out, or on the green arrows for adjacent maps.


METAR-TAF: